ウルムチ の空港の天気 - METARとTAF

ウルムチ地窩堡国際空港 ( ZWWW / URC ) - 中国 新疆ウイグル自治区ウルムチ市
飛行場実況気象(Metar)
観測時間04/25 22:30 CST (04/25 14:30 UTC)
風向・風速南南西 3m/s
視程10km以上
天気現象
なし
気温24℃
湿度24%
気圧1012hPa
METARZWWW 251430Z 21003MPS CAVOK 24/02 Q1012 NOSIG
過去の天気等 Google飛行場航空写真 Wunderground天気予報

過去48時間のMETAR

飛行場予報(TAF)
発表時間: 4/25 17:07 CST (4/25 09:07 UTC)
予報対象時間: 25日20時 CST ~ 26日20時 CST
風向・風速北北西 4m/s 瞬間風速 9m/s
視程10km以上
なし
26日10時 CST ~ 26日11時 CST に徐々に
視程6,000m
天気現象弱いしゅう雨
全天の8割程度の雲 雲底高度 1,220m
TAF ZWWW 250907Z 2512/2612 33004G09MPS CAVOK TX27/2609Z TN18/2523Z
BECMG 2602/2603 6000 -SHRA BKN040